sensor_id;sensor_type;location;lat;lon;timestamp;temperature;humidity
45843;DHT22;31563;51.744;8.252;2022-12-29T00:01:09;18.50;79.40
45843;DHT22;31563;51.744;8.252;2022-12-29T00:03:38;17.90;78.90
45843;DHT22;31563;51.744;8.252;2022-12-29T00:06:06;18.10;79.00
45843;DHT22;31563;51.744;8.252;2022-12-29T00:08:34;18.30;80.40
45843;DHT22;31563;51.744;8.252;2022-12-29T00:11:10;18.10;53.90
45843;DHT22;31563;51.744;8.252;2022-12-29T00:13:39;18.10;56.70
45843;DHT22;31563;51.744;8.252;2022-12-29T00:16:25;18.30;80.50
45843;DHT22;31563;51.744;8.252;2022-12-29T00:18:53;18.10;79.50
45843;DHT22;31563;51.744;8.252;2022-12-29T00:21:22;18.00;79.50
45843;DHT22;31563;51.744;8.252;2022-12-29T00:24:12;17.50;53.50
45843;DHT22;31563;51.744;8.252;2022-12-29T00:27:12;18.40;81.80
45843;DHT22;31563;51.744;8.252;2022-12-29T00:30:00;18.50;82.20
45843;DHT22;31563;51.744;8.252;2022-12-29T00:32:46;17.90;81.60
45843;DHT22;31563;51.744;8.252;2022-12-29T00:35:34;18.10;54.60
45843;DHT22;31563;51.744;8.252;2022-12-29T00:38:07;17.90;80.80
45843;DHT22;31563;51.744;8.252;2022-12-29T00:40:59;18.20;81.30
45843;DHT22;31563;51.744;8.252;2022-12-29T00:46:32;18.20;80.80
45843;DHT22;31563;51.744;8.252;2022-12-29T00:49:00;18.20;79.50
45843;DHT22;31563;51.744;8.252;2022-12-29T00:54:15;18.20;81.10
45843;DHT22;31563;51.744;8.252;2022-12-29T00:56:46;18.10;53.70
45843;DHT22;31563;51.744;8.252;2022-12-29T00:59:14;18.00;79.90
45843;DHT22;31563;51.744;8.252;2022-12-29T01:01:46;18.30;78.30
45843;DHT22;31563;51.744;8.252;2022-12-29T01:04:14;18.30;79.80
45843;DHT22;31563;51.744;8.252;2022-12-29T01:06:44;18.30;69.40
45843;DHT22;31563;51.744;8.252;2022-12-29T01:09:12;18.10;78.70
45843;DHT22;31563;51.744;8.252;2022-12-29T01:11:58;18.00;80.70
45843;DHT22;31563;51.744;8.252;2022-12-29T01:14:27;18.10;79.90
45843;DHT22;31563;51.744;8.252;2022-12-29T01:16:57;17.40;53.30
45843;DHT22;31563;51.744;8.252;2022-12-29T01:19:25;18.10;79.10
45843;DHT22;31563;51.744;8.252;2022-12-29T01:21:53;17.70;64.20
45843;DHT22;31563;51.744;8.252;2022-12-29T01:24:22;17.90;77.70
45843;DHT22;31563;51.744;8.252;2022-12-29T01:26:51;18.00;76.80
45843;DHT22;31563;51.744;8.252;2022-12-29T01:31:49;18.20;77.60
45843;DHT22;31563;51.744;8.252;2022-12-29T01:36:48;18.20;78.10
45843;DHT22;31563;51.744;8.252;2022-12-29T01:39:16;18.30;78.60
45843;DHT22;31563;51.744;8.252;2022-12-29T01:41:44;18.30;79.50
45843;DHT22;31563;51.744;8.252;2022-12-29T01:44:50;18.60;55.50
45843;DHT22;31563;51.744;8.252;2022-12-29T01:47:28;18.40;82.60
45843;DHT22;31563;51.744;8.252;2022-12-29T01:52:32;18.30;82.50
45843;DHT22;31563;51.744;8.252;2022-12-29T01:55:02;17.80;79.70
45843;DHT22;31563;51.744;8.252;2022-12-29T01:57:33;18.20;78.50
45843;DHT22;31563;51.744;8.252;2022-12-29T02:00:05;18.20;80.10
45843;DHT22;31563;51.744;8.252;2022-12-29T02:02:35;18.30;79.70
45843;DHT22;31563;51.744;8.252;2022-12-29T02:05:09;18.20;55.00
45843;DHT22;31563;51.744;8.252;2022-12-29T02:07:38;18.40;79.90
45843;DHT22;31563;51.744;8.252;2022-12-29T02:10:07;18.30;79.40
45843;DHT22;31563;51.744;8.252;2022-12-29T02:12:36;18.20;79.70
45843;DHT22;31563;51.744;8.252;2022-12-29T02:15:05;18.20;79.60
45843;DHT22;31563;51.744;8.252;2022-12-29T02:17:45;18.20;55.00
45843;DHT22;31563;51.744;8.252;2022-12-29T02:20:41;18.50;79.80
45843;DHT22;31563;51.744;8.252;2022-12-29T02:23:41;18.20;80.20
45843;DHT22;31563;51.744;8.252;2022-12-29T02:26:28;18.40;56.00
45843;DHT22;31563;51.744;8.252;2022-12-29T02:31:59;18.20;83.50
45843;DHT22;31563;51.744;8.252;2022-12-29T02:34:38;17.90;82.50
45843;DHT22;31563;51.744;8.252;2022-12-29T02:37:15;18.50;81.30
45843;DHT22;31563;51.744;8.252;2022-12-29T02:39:52;18.20;83.00
45843;DHT22;31563;51.744;8.252;2022-12-29T02:42:33;18.30;81.20
45843;DHT22;31563;51.744;8.252;2022-12-29T02:45:05;18.00;82.70
45843;DHT22;31563;51.744;8.252;2022-12-29T02:47:40;18.10;82.70
45843;DHT22;31563;51.744;8.252;2022-12-29T02:50:15;18.20;55.20
45843;DHT22;31563;51.744;8.252;2022-12-29T02:52:50;18.30;82.90
45843;DHT22;31563;51.744;8.252;2022-12-29T02:55:19;18.20;82.80
45843;DHT22;31563;51.744;8.252;2022-12-29T03:00:15;18.20;82.90
45843;DHT22;31563;51.744;8.252;2022-12-29T03:03:06;18.10;57.40
45843;DHT22;31563;51.744;8.252;2022-12-29T03:05:55;18.20;83.90
45843;DHT22;31563;51.744;8.252;2022-12-29T03:08:31;18.20;82.50
45843;DHT22;31563;51.744;8.252;2022-12-29T03:11:03;18.40;56.30
45843;DHT22;31563;51.744;8.252;2022-12-29T03:13:38;18.10;82.10
45843;DHT22;31563;51.744;8.252;2022-12-29T03:16:31;18.00;70.90
45843;DHT22;31563;51.744;8.252;2022-12-29T03:19:06;18.20;55.40
45843;DHT22;31563;51.744;8.252;2022-12-29T03:21:38;18.10;82.90
45843;DHT22;31563;51.744;8.252;2022-12-29T03:24:27;18.20;85.40
45843;DHT22;31563;51.744;8.252;2022-12-29T03:26:58;18.40;55.90
45843;DHT22;31563;51.744;8.252;2022-12-29T03:29:28;18.20;56.00
45843;DHT22;31563;51.744;8.252;2022-12-29T03:31:58;18.20;55.90
45843;DHT22;31563;51.744;8.252;2022-12-29T03:34:30;18.30;84.50
45843;DHT22;31563;51.744;8.252;2022-12-29T03:37:01;18.10;84.50
45843;DHT22;31563;51.744;8.252;2022-12-29T03:39:30;18.00;55.60
45843;DHT22;31563;51.744;8.252;2022-12-29T03:42:02;18.10;81.90
45843;DHT22;31563;51.744;8.252;2022-12-29T03:44:35;18.20;83.30
45843;DHT22;31563;51.744;8.252;2022-12-29T03:47:04;18.50;85.20
45843;DHT22;31563;51.744;8.252;2022-12-29T03:49:34;18.20;59.50
45843;DHT22;31563;51.744;8.252;2022-12-29T03:52:03;18.20;82.50
45843;DHT22;31563;51.744;8.252;2022-12-29T03:54:31;18.10;83.00
45843;DHT22;31563;51.744;8.252;2022-12-29T03:56:59;18.10;83.50
45843;DHT22;31563;51.744;8.252;2022-12-29T03:59:28;18.20;83.60
45843;DHT22;31563;51.744;8.252;2022-12-29T04:04:24;18.10;83.60
45843;DHT22;31563;51.744;8.252;2022-12-29T04:06:54;18.40;82.90
45843;DHT22;31563;51.744;8.252;2022-12-29T04:11:50;17.90;82.80
45843;DHT22;31563;51.744;8.252;2022-12-29T04:16:47;18.10;83.80
45843;DHT22;31563;51.744;8.252;2022-12-29T04:19:15;18.20;67.00
45843;DHT22;31563;51.744;8.252;2022-12-29T04:21:44;17.80;68.30
45843;DHT22;31563;51.744;8.252;2022-12-29T04:24:13;18.10;55.60
45843;DHT22;31563;51.744;8.252;2022-12-29T04:26:44;17.80;84.20
45843;DHT22;31563;51.744;8.252;2022-12-29T04:31:41;18.30;84.60
45843;DHT22;31563;51.744;8.252;2022-12-29T04:34:09;18.00;84.60
45843;DHT22;31563;51.744;8.252;2022-12-29T04:36:37;18.50;84.80
45843;DHT22;31563;51.744;8.252;2022-12-29T04:41:36;18.10;84.10
45843;DHT22;31563;51.744;8.252;2022-12-29T04:44:05;18.10;83.20
45843;DHT22;31563;51.744;8.252;2022-12-29T04:46:33;18.20;84.30
45843;DHT22;31563;51.744;8.252;2022-12-29T04:59:02;17.90;56.20
45843;DHT22;31563;51.744;8.252;2022-12-29T05:01:30;18.20;82.80
45843;DHT22;31563;51.744;8.252;2022-12-29T05:03:58;17.90;82.70
45843;DHT22;31563;51.744;8.252;2022-12-29T05:08:55;18.30;83.70
45843;DHT22;31563;51.744;8.252;2022-12-29T05:16:22;18.90;82.30
45843;DHT22;31563;51.744;8.252;2022-12-29T05:18:50;18.40;83.10
45843;DHT22;31563;51.744;8.252;2022-12-29T05:21:18;18.50;81.80
45843;DHT22;31563;51.744;8.252;2022-12-29T05:23:46;18.20;83.40
45843;DHT22;31563;51.744;8.252;2022-12-29T05:26:14;18.40;81.70
45843;DHT22;31563;51.744;8.252;2022-12-29T05:28:43;18.40;81.10
45843;DHT22;31563;51.744;8.252;2022-12-29T05:31:11;18.40;80.70
45843;DHT22;31563;51.744;8.252;2022-12-29T05:33:40;20.10;55.20
45843;DHT22;31563;51.744;8.252;2022-12-29T05:36:09;18.90;79.70
45843;DHT22;31563;51.744;8.252;2022-12-29T05:38:37;18.40;81.80
45843;DHT22;31563;51.744;8.252;2022-12-29T05:41:05;18.50;79.90
45843;DHT22;31563;51.744;8.252;2022-12-29T05:43:34;18.40;80.10
45843;DHT22;31563;51.744;8.252;2022-12-29T05:46:03;18.60;79.90
45843;DHT22;31563;51.744;8.252;2022-12-29T05:48:31;18.30;81.70
45843;DHT22;31563;51.744;8.252;2022-12-29T05:53:33;18.50;54.70
45843;DHT22;31563;51.744;8.252;2022-12-29T05:56:02;18.60;79.40
45843;DHT22;31563;51.744;8.252;2022-12-29T05:58:31;18.70;77.50
45843;DHT22;31563;51.744;8.252;2022-12-29T06:00:59;18.60;77.30
45843;DHT22;31563;51.744;8.252;2022-12-29T06:03:28;18.60;77.30
45843;DHT22;31563;51.744;8.252;2022-12-29T06:08:26;18.40;77.50
45843;DHT22;31563;51.744;8.252;2022-12-29T06:10:54;18.80;77.90
45843;DHT22;31563;51.744;8.252;2022-12-29T06:15:51;18.70;78.50
45843;DHT22;31563;51.744;8.252;2022-12-29T06:18:19;18.70;78.00
45843;DHT22;31563;51.744;8.252;2022-12-29T06:25:47;18.80;77.90
45843;DHT22;31563;51.744;8.252;2022-12-29T06:28:16;18.90;80.10
45843;DHT22;31563;51.744;8.252;2022-12-29T06:30:45;18.40;79.30
45843;DHT22;31563;51.744;8.252;2022-12-29T06:33:13;18.60;78.30
45843;DHT22;31563;51.744;8.252;2022-12-29T06:35:43;18.60;77.30
45843;DHT22;31563;51.744;8.252;2022-12-29T06:38:12;19.00;77.30
45843;DHT22;31563;51.744;8.252;2022-12-29T06:40:42;18.40;78.80
45843;DHT22;31563;51.744;8.252;2022-12-29T06:43:13;18.70;77.80
45843;DHT22;31563;51.744;8.252;2022-12-29T06:45:42;18.50;77.30
45843;DHT22;31563;51.744;8.252;2022-12-29T06:48:10;18.60;76.20
45843;DHT22;31563;51.744;8.252;2022-12-29T06:50:41;18.70;76.90
45843;DHT22;31563;51.744;8.252;2022-12-29T06:53:09;18.70;77.20
45843;DHT22;31563;51.744;8.252;2022-12-29T06:55:38;18.40;77.00
45843;DHT22;31563;51.744;8.252;2022-12-29T06:58:07;18.40;75.90
45843;DHT22;31563;51.744;8.252;2022-12-29T07:00:36;18.50;76.70
45843;DHT22;31563;51.744;8.252;2022-12-29T07:03:05;18.80;75.30
45843;DHT22;31563;51.744;8.252;2022-12-29T07:05:33;18.80;76.30
45843;DHT22;31563;51.744;8.252;2022-12-29T07:08:02;18.80;74.90
45843;DHT22;31563;51.744;8.252;2022-12-29T07:10:31;19.00;75.30
45843;DHT22;31563;51.744;8.252;2022-12-29T07:13:02;18.70;76.20
45843;DHT22;31563;51.744;8.252;2022-12-29T07:15:30;18.80;75.50
45843;DHT22;31563;51.744;8.252;2022-12-29T07:18:00;18.90;75.80
45843;DHT22;31563;51.744;8.252;2022-12-29T07:20:28;18.70;73.90
45843;DHT22;31563;51.744;8.252;2022-12-29T07:22:57;19.00;74.40
45843;DHT22;31563;51.744;8.252;2022-12-29T07:25:27;18.80;75.40
45843;DHT22;31563;51.744;8.252;2022-12-29T07:27:56;18.90;75.10
45843;DHT22;31563;51.744;8.252;2022-12-29T07:30:25;18.80;75.90
45843;DHT22;31563;51.744;8.252;2022-12-29T07:32:53;18.30;74.80
45843;DHT22;31563;51.744;8.252;2022-12-29T07:35:23;18.80;76.60
45843;DHT22;31563;51.744;8.252;2022-12-29T07:37:52;18.90;56.30
45843;DHT22;31563;51.744;8.252;2022-12-29T07:40:20;18.90;74.60
45843;DHT22;31563;51.744;8.252;2022-12-29T07:42:48;18.50;74.20
45843;DHT22;31563;51.744;8.252;2022-12-29T07:45:16;18.70;77.40
45843;DHT22;31563;51.744;8.252;2022-12-29T07:47:47;19.10;52.50
45843;DHT22;31563;51.744;8.252;2022-12-29T07:50:16;18.90;78.90
45843;DHT22;31563;51.744;8.252;2022-12-29T07:52:46;18.80;52.20
45843;DHT22;31563;51.744;8.252;2022-12-29T07:55:17;19.20;77.50
45843;DHT22;31563;51.744;8.252;2022-12-29T07:57:45;18.90;78.90
45843;DHT22;31563;51.744;8.252;2022-12-29T08:00:15;19.10;79.40
45843;DHT22;31563;51.744;8.252;2022-12-29T08:02:43;18.60;79.20
45843;DHT22;31563;51.744;8.252;2022-12-29T08:05:12;18.90;79.40
45843;DHT22;31563;51.744;8.252;2022-12-29T08:07:42;19.00;79.50
45843;DHT22;31563;51.744;8.252;2022-12-29T08:10:12;19.10;53.60
45843;DHT22;31563;51.744;8.252;2022-12-29T08:12:41;18.80;78.90
45843;DHT22;31563;51.744;8.252;2022-12-29T08:15:11;19.00;78.50
45843;DHT22;31563;51.744;8.252;2022-12-29T08:17:39;19.00;52.90
45843;DHT22;31563;51.744;8.252;2022-12-29T08:20:08;19.10;79.70
45843;DHT22;31563;51.744;8.252;2022-12-29T08:22:37;19.00;78.10
45843;DHT22;31563;51.744;8.252;2022-12-29T08:25:05;18.70;79.10
45843;DHT22;31563;51.744;8.252;2022-12-29T08:27:35;18.90;79.10
45843;DHT22;31563;51.744;8.252;2022-12-29T08:30:04;19.00;79.40
45843;DHT22;31563;51.744;8.252;2022-12-29T08:32:32;19.00;80.00
45843;DHT22;31563;51.744;8.252;2022-12-29T08:35:00;18.70;77.50
45843;DHT22;31563;51.744;8.252;2022-12-29T08:37:29;18.90;79.60
45843;DHT22;31563;51.744;8.252;2022-12-29T08:42:30;19.00;79.50
45843;DHT22;31563;51.744;8.252;2022-12-29T08:45:00;19.00;79.10
45843;DHT22;31563;51.744;8.252;2022-12-29T08:47:28;19.10;52.90
45843;DHT22;31563;51.744;8.252;2022-12-29T08:49:56;19.50;78.90
45843;DHT22;31563;51.744;8.252;2022-12-29T08:54:53;20.20;76.80
45843;DHT22;31563;51.744;8.252;2022-12-29T08:57:21;20.40;74.10
45843;DHT22;31563;51.744;8.252;2022-12-29T08:59:49;20.30;73.40
45843;DHT22;31563;51.744;8.252;2022-12-29T09:02:19;20.00;72.90
45843;DHT22;31563;51.744;8.252;2022-12-29T09:04:50;19.90;72.10
45843;DHT22;31563;51.744;8.252;2022-12-29T09:07:19;19.40;70.10
45843;DHT22;31563;51.744;8.252;2022-12-29T09:09:47;19.70;74.80
45843;DHT22;31563;51.744;8.252;2022-12-29T09:12:16;19.90;76.70
45843;DHT22;31563;51.744;8.252;2022-12-29T09:14:46;19.80;49.80
45843;DHT22;31563;51.744;8.252;2022-12-29T09:17:15;19.90;74.20
45843;DHT22;31563;51.744;8.252;2022-12-29T09:20:03;20.20;74.20
45843;DHT22;31563;51.744;8.252;2022-12-29T09:22:31;20.30;74.20
45843;DHT22;31563;51.744;8.252;2022-12-29T09:25:00;20.10;73.30
45843;DHT22;31563;51.744;8.252;2022-12-29T09:27:29;19.90;73.50
45843;DHT22;31563;51.744;8.252;2022-12-29T09:29:58;20.10;72.30
45843;DHT22;31563;51.744;8.252;2022-12-29T09:32:27;19.50;54.10
45843;DHT22;31563;51.744;8.252;2022-12-29T09:35:00;19.80;72.90
45843;DHT22;31563;51.744;8.252;2022-12-29T09:37:30;19.90;75.40
45843;DHT22;31563;51.744;8.252;2022-12-29T09:39:59;19.70;75.60
45843;DHT22;31563;51.744;8.252;2022-12-29T09:42:32;19.90;74.70
45843;DHT22;31563;51.744;8.252;2022-12-29T09:45:10;19.30;73.20
45843;DHT22;31563;51.744;8.252;2022-12-29T09:47:41;20.20;75.20
45843;DHT22;31563;51.744;8.252;2022-12-29T09:50:17;20.00;72.10
45843;DHT22;31563;51.744;8.252;2022-12-29T09:52:52;19.80;73.40
45843;DHT22;31563;51.744;8.252;2022-12-29T09:55:25;19.70;75.30
45843;DHT22;31563;51.744;8.252;2022-12-29T09:58:01;19.80;75.00
45843;DHT22;31563;51.744;8.252;2022-12-29T10:00:37;19.90;72.20
45843;DHT22;31563;51.744;8.252;2022-12-29T10:03:11;19.90;69.20
45843;DHT22;31563;51.744;8.252;2022-12-29T10:08:27;20.00;72.30
45843;DHT22;31563;51.744;8.252;2022-12-29T10:11:03;20.20;53.70
45843;DHT22;31563;51.744;8.252;2022-12-29T10:13:42;20.00;49.00
45843;DHT22;31563;51.744;8.252;2022-12-29T10:16:15;20.10;74.80
45843;DHT22;31563;51.744;8.252;2022-12-29T10:19:09;20.20;49.50
45843;DHT22;31563;51.744;8.252;2022-12-29T10:21:52;20.90;72.80
45843;DHT22;31563;51.744;8.252;2022-12-29T10:24:26;21.30;49.80
45843;DHT22;31563;51.744;8.252;2022-12-29T10:26:58;21.90;77.80
45843;DHT22;31563;51.744;8.252;2022-12-29T10:29:32;22.50;48.80
45843;DHT22;31563;51.744;8.252;2022-12-29T10:32:04;22.50;75.70
45843;DHT22;31563;51.744;8.252;2022-12-29T10:34:37;22.90;68.10
45843;DHT22;31563;51.744;8.252;2022-12-29T10:37:12;23.20;68.10
45843;DHT22;31563;51.744;8.252;2022-12-29T10:39:47;23.20;45.90
45843;DHT22;31563;51.744;8.252;2022-12-29T10:42:25;23.00;45.90
45843;DHT22;31563;51.744;8.252;2022-12-29T10:44:54;22.60;65.20
45843;DHT22;31563;51.744;8.252;2022-12-29T10:47:25;22.10;64.30
45843;DHT22;31563;51.744;8.252;2022-12-29T10:49:54;22.20;68.20
45843;DHT22;31563;51.744;8.252;2022-12-29T10:52:26;21.90;65.10
45843;DHT22;31563;51.744;8.252;2022-12-29T10:54:59;22.20;57.10
45843;DHT22;31563;51.744;8.252;2022-12-29T10:57:32;22.10;65.90
45843;DHT22;31563;51.744;8.252;2022-12-29T11:00:01;22.30;67.60
45843;DHT22;31563;51.744;8.252;2022-12-29T11:02:51;21.80;67.80
45843;DHT22;31563;51.744;8.252;2022-12-29T11:05:27;22.10;46.20
45843;DHT22;31563;51.744;8.252;2022-12-29T11:08:00;21.90;68.60
45843;DHT22;31563;51.744;8.252;2022-12-29T11:10:36;22.40;66.80
45843;DHT22;31563;51.744;8.252;2022-12-29T11:13:12;22.10;67.50
45843;DHT22;31563;51.744;8.252;2022-12-29T11:15:42;22.10;66.70
45843;DHT22;31563;51.744;8.252;2022-12-29T11:18:20;21.90;68.10
45843;DHT22;31563;51.744;8.252;2022-12-29T11:20:49;21.50;67.30
45843;DHT22;31563;51.744;8.252;2022-12-29T11:23:28;21.40;69.40
45843;DHT22;31563;51.744;8.252;2022-12-29T11:26:17;21.80;67.40
45843;DHT22;31563;51.744;8.252;2022-12-29T11:29:04;21.50;70.20
45843;DHT22;31563;51.744;8.252;2022-12-29T11:31:40;21.30;69.00
45843;DHT22;31563;51.744;8.252;2022-12-29T11:34:08;21.50;70.60
45843;DHT22;31563;51.744;8.252;2022-12-29T11:36:38;21.40;68.70
45843;DHT22;31563;51.744;8.252;2022-12-29T11:39:26;21.30;68.30
45843;DHT22;31563;51.744;8.252;2022-12-29T11:41:56;21.60;68.40
45843;DHT22;31563;51.744;8.252;2022-12-29T11:44:26;21.90;69.00
45843;DHT22;31563;51.744;8.252;2022-12-29T11:46:55;20.90;68.90
45843;DHT22;31563;51.744;8.252;2022-12-29T11:49:25;21.20;71.90
45843;DHT22;31563;51.744;8.252;2022-12-29T11:51:54;21.40;70.70
45843;DHT22;31563;51.744;8.252;2022-12-29T11:54:26;20.80;72.80
45843;DHT22;31563;51.744;8.252;2022-12-29T11:56:57;20.70;75.10
45843;DHT22;31563;51.744;8.252;2022-12-29T12:02:45;21.10;47.80
45843;DHT22;31563;51.744;8.252;2022-12-29T12:05:24;20.40;46.40
45843;DHT22;31563;51.744;8.252;2022-12-29T12:07:59;20.10;72.80
45843;DHT22;31563;51.744;8.252;2022-12-29T12:10:32;20.50;71.30
45843;DHT22;31563;51.744;8.252;2022-12-29T12:13:08;20.30;69.00
45843;DHT22;31563;51.744;8.252;2022-12-29T12:15:44;20.60;72.90
45843;DHT22;31563;51.744;8.252;2022-12-29T12:18:31;20.60;69.00
45843;DHT22;31563;51.744;8.252;2022-12-29T12:21:06;20.80;44.80
45843;DHT22;31563;51.744;8.252;2022-12-29T12:23:43;20.30;70.00
45843;DHT22;31563;51.744;8.252;2022-12-29T12:26:14;20.30;70.40
45843;DHT22;31563;51.744;8.252;2022-12-29T12:28:52;20.90;69.70
45843;DHT22;31563;51.744;8.252;2022-12-29T12:31:34;20.00;70.80
45843;DHT22;31563;51.744;8.252;2022-12-29T12:34:10;21.30;46.50
45843;DHT22;31563;51.744;8.252;2022-12-29T12:36:55;20.60;64.80
45843;DHT22;31563;51.744;8.252;2022-12-29T12:39:30;20.00;70.20
45843;DHT22;31563;51.744;8.252;2022-12-29T12:42:10;21.00;70.80
45843;DHT22;31563;51.744;8.252;2022-12-29T12:44:48;20.90;70.90
45843;DHT22;31563;51.744;8.252;2022-12-29T12:47:39;20.30;46.20
45843;DHT22;31563;51.744;8.252;2022-12-29T12:50:22;20.40;70.90
45843;DHT22;31563;51.744;8.252;2022-12-29T12:53:07;20.40;46.30
45843;DHT22;31563;51.744;8.252;2022-12-29T12:58:32;20.40;70.40
45843;DHT22;31563;51.744;8.252;2022-12-29T13:01:15;20.20;46.10
45843;DHT22;31563;51.744;8.252;2022-12-29T13:03:59;20.30;46.20
45843;DHT22;31563;51.744;8.252;2022-12-29T13:06:38;20.60;72.80
45843;DHT22;31563;51.744;8.252;2022-12-29T13:09:29;20.70;73.10
45843;DHT22;31563;51.744;8.252;2022-12-29T13:12:08;20.20;72.70
45843;DHT22;31563;51.744;8.252;2022-12-29T13:14:48;20.30;72.00
45843;DHT22;31563;51.744;8.252;2022-12-29T13:17:25;20.50;72.70
45843;DHT22;31563;51.744;8.252;2022-12-29T13:20:02;20.70;71.20
45843;DHT22;31563;51.744;8.252;2022-12-29T13:22:40;20.60;71.60
45843;DHT22;31563;51.744;8.252;2022-12-29T13:25:25;19.90;46.50
45843;DHT22;31563;51.744;8.252;2022-12-29T13:27:59;20.60;72.90
45843;DHT22;31563;51.744;8.252;2022-12-29T13:30:34;20.40;72.10
45843;DHT22;31563;51.744;8.252;2022-12-29T13:33:14;20.20;71.90
45843;DHT22;31563;51.744;8.252;2022-12-29T13:35:56;19.90;72.00
45843;DHT22;31563;51.744;8.252;2022-12-29T13:38:30;20.20;72.30
45843;DHT22;31563;51.744;8.252;2022-12-29T13:41:03;20.40;72.20
45843;DHT22;31563;51.744;8.252;2022-12-29T13:43:35;20.20;70.30
45843;DHT22;31563;51.744;8.252;2022-12-29T13:46:07;20.30;73.00
45843;DHT22;31563;51.744;8.252;2022-12-29T13:48:41;20.30;73.10
45843;DHT22;31563;51.744;8.252;2022-12-29T13:51:11;19.80;74.50
45843;DHT22;31563;51.744;8.252;2022-12-29T13:53:55;20.00;72.80
45843;DHT22;31563;51.744;8.252;2022-12-29T13:56:34;20.20;74.50
45843;DHT22;31563;51.744;8.252;2022-12-29T13:59:08;20.30;74.30
45843;DHT22;31563;51.744;8.252;2022-12-29T14:01:46;20.20;72.90
45843;DHT22;31563;51.744;8.252;2022-12-29T14:04:22;20.00;72.20
45843;DHT22;31563;51.744;8.252;2022-12-29T14:07:00;20.20;74.60
45843;DHT22;31563;51.744;8.252;2022-12-29T14:09:45;20.60;72.70
45843;DHT22;31563;51.744;8.252;2022-12-29T14:12:32;20.40;74.80
45843;DHT22;31563;51.744;8.252;2022-12-29T14:15:15;20.20;73.10
45843;DHT22;31563;51.744;8.252;2022-12-29T14:18:04;20.20;46.80
45843;DHT22;31563;51.744;8.252;2022-12-29T14:20:34;20.30;46.80
45843;DHT22;31563;51.744;8.252;2022-12-29T14:23:16;20.00;47.00
45843;DHT22;31563;51.744;8.252;2022-12-29T14:25:57;20.10;48.30
45843;DHT22;31563;51.744;8.252;2022-12-29T14:28:28;20.20;73.70
45843;DHT22;31563;51.744;8.252;2022-12-29T14:30:58;20.10;75.40
45843;DHT22;31563;51.744;8.252;2022-12-29T14:33:29;20.20;74.40
45843;DHT22;31563;51.744;8.252;2022-12-29T14:36:18;20.40;74.60
45843;DHT22;31563;51.744;8.252;2022-12-29T14:38:48;20.30;75.10
45843;DHT22;31563;51.744;8.252;2022-12-29T14:41:27;20.70;74.40
45843;DHT22;31563;51.744;8.252;2022-12-29T14:44:16;19.80;74.30
45843;DHT22;31563;51.744;8.252;2022-12-29T14:46:48;20.10;74.20
45843;DHT22;31563;51.744;8.252;2022-12-29T14:49:24;20.30;74.30
45843;DHT22;31563;51.744;8.252;2022-12-29T14:52:05;20.20;73.90
45843;DHT22;31563;51.744;8.252;2022-12-29T14:54:42;20.20;48.20
45843;DHT22;31563;51.744;8.252;2022-12-29T14:57:19;19.70;48.30
45843;DHT22;31563;51.744;8.252;2022-12-29T14:59:53;20.20;76.20
45843;DHT22;31563;51.744;8.252;2022-12-29T15:02:26;19.90;76.10
45843;DHT22;31563;51.744;8.252;2022-12-29T15:04:59;20.40;74.70
45843;DHT22;31563;51.744;8.252;2022-12-29T15:07:30;20.10;76.50
45843;DHT22;31563;51.744;8.252;2022-12-29T15:10:04;20.40;75.30
45843;DHT22;31563;51.744;8.252;2022-12-29T15:12:38;20.40;49.00
45843;DHT22;31563;51.744;8.252;2022-12-29T15:15:18;20.00;76.30
45843;DHT22;31563;51.744;8.252;2022-12-29T15:17:47;19.90;77.20
45843;DHT22;31563;51.744;8.252;2022-12-29T15:20:22;20.30;75.60
45843;DHT22;31563;51.744;8.252;2022-12-29T15:22:55;20.00;77.10
45843;DHT22;31563;51.744;8.252;2022-12-29T15:25:24;20.50;75.10
45843;DHT22;31563;51.744;8.252;2022-12-29T15:27:56;19.90;74.00
45843;DHT22;31563;51.744;8.252;2022-12-29T15:30:25;20.10;75.60
45843;DHT22;31563;51.744;8.252;2022-12-29T15:32:54;20.20;76.40
45843;DHT22;31563;51.744;8.252;2022-12-29T15:35:26;20.20;49.20
45843;DHT22;31563;51.744;8.252;2022-12-29T15:37:57;19.90;77.10
45843;DHT22;31563;51.744;8.252;2022-12-29T15:40:26;19.90;75.10
45843;DHT22;31563;51.744;8.252;2022-12-29T15:43:07;20.00;49.50
45843;DHT22;31563;51.744;8.252;2022-12-29T15:45:38;20.50;75.70
45843;DHT22;31563;51.744;8.252;2022-12-29T15:48:14;19.80;75.40
45843;DHT22;31563;51.744;8.252;2022-12-29T15:50:44;20.20;78.20
45843;DHT22;31563;51.744;8.252;2022-12-29T15:53:19;20.10;75.50
45843;DHT22;31563;51.744;8.252;2022-12-29T15:55:51;20.10;77.90
45843;DHT22;31563;51.744;8.252;2022-12-29T15:58:30;20.10;76.20
45843;DHT22;31563;51.744;8.252;2022-12-29T16:01:00;19.70;77.00
45843;DHT22;31563;51.744;8.252;2022-12-29T16:03:32;19.60;75.70
45843;DHT22;31563;51.744;8.252;2022-12-29T16:06:08;20.10;49.30
45843;DHT22;31563;51.744;8.252;2022-12-29T16:08:39;19.90;76.10
45843;DHT22;31563;51.744;8.252;2022-12-29T16:11:20;19.80;75.70
45843;DHT22;31563;51.744;8.252;2022-12-29T16:13:51;20.00;76.10
45843;DHT22;31563;51.744;8.252;2022-12-29T16:16:22;20.10;75.20
45843;DHT22;31563;51.744;8.252;2022-12-29T16:18:54;20.40;76.20
45843;DHT22;31563;51.744;8.252;2022-12-29T16:21:26;20.40;75.90
45843;DHT22;31563;51.744;8.252;2022-12-29T16:24:02;20.00;73.40
45843;DHT22;31563;51.744;8.252;2022-12-29T16:31:35;20.20;78.20
45843;DHT22;31563;51.744;8.252;2022-12-29T16:34:12;19.90;76.20
45843;DHT22;31563;51.744;8.252;2022-12-29T16:36:51;19.70;76.20
45843;DHT22;31563;51.744;8.252;2022-12-29T16:39:26;20.00;75.40
45843;DHT22;31563;51.744;8.252;2022-12-29T16:41:55;20.00;76.40
45843;DHT22;31563;51.744;8.252;2022-12-29T16:44:25;19.70;75.70
45843;DHT22;31563;51.744;8.252;2022-12-29T16:47:01;20.50;49.80
45843;DHT22;31563;51.744;8.252;2022-12-29T16:49:32;19.00;75.90
45843;DHT22;31563;51.744;8.252;2022-12-29T16:52:01;19.50;78.20
45843;DHT22;31563;51.744;8.252;2022-12-29T16:54:34;19.60;75.90
45843;DHT22;31563;51.744;8.252;2022-12-29T16:57:03;20.00;76.30
45843;DHT22;31563;51.744;8.252;2022-12-29T16:59:33;20.00;76.70
45843;DHT22;31563;51.744;8.252;2022-12-29T17:02:05;19.50;49.60
45843;DHT22;31563;51.744;8.252;2022-12-29T17:04:33;19.60;77.30
45843;DHT22;31563;51.744;8.252;2022-12-29T17:07:02;19.80;77.50
45843;DHT22;31563;51.744;8.252;2022-12-29T17:09:31;19.90;75.60
45843;DHT22;31563;51.744;8.252;2022-12-29T17:12:01;19.70;76.00
45843;DHT22;31563;51.744;8.252;2022-12-29T17:14:40;19.70;76.40
45843;DHT22;31563;51.744;8.252;2022-12-29T17:17:13;19.50;76.40
45843;DHT22;31563;51.744;8.252;2022-12-29T17:19:46;19.50;75.80
45843;DHT22;31563;51.744;8.252;2022-12-29T17:22:17;19.70;74.30
45843;DHT22;31563;51.744;8.252;2022-12-29T17:24:48;19.60;76.50
45843;DHT22;31563;51.744;8.252;2022-12-29T17:27:26;19.90;75.60